createdAt,value
2022-08-07T00:00:18.577Z,47.70
2022-08-07T00:00:50.725Z,47.70
2022-08-07T00:02:36.360Z,47.70
2022-08-07T00:02:37.252Z,47.70
2022-08-07T00:03:08.750Z,47.70
2022-08-07T00:03:40.798Z,47.60
2022-08-07T00:04:24.433Z,47.50
2022-08-07T00:04:56.723Z,47.60
2022-08-07T00:05:28.763Z,47.50
2022-08-07T00:06:01.957Z,48.00
2022-08-07T00:06:33.999Z,47.50
2022-08-07T00:07:09.518Z,47.40
2022-08-07T00:07:41.771Z,47.50
2022-08-07T00:08:14.391Z,47.50
2022-08-07T00:08:46.506Z,47.50
2022-08-07T00:09:22.668Z,47.40
2022-08-07T00:10:18.829Z,47.50
2022-08-07T00:10:57.403Z,47.40
2022-08-07T00:11:33.119Z,47.40
2022-08-07T00:12:05.485Z,47.40
2022-08-07T00:12:57.675Z,47.50
2022-08-07T00:13:29.369Z,47.50
2022-08-07T00:14:01.584Z,47.50
2022-08-07T00:14:33.619Z,47.50
2022-08-07T00:15:06.794Z,47.50
2022-08-07T00:15:46.823Z,47.50
2022-08-07T00:16:27.969Z,47.60
2022-08-07T00:17:02.474Z,47.60
2022-08-07T00:17:35.214Z,47.60
2022-08-07T00:18:09.537Z,47.30
2022-08-07T00:18:52.018Z,47.70
2022-08-07T00:19:25.892Z,47.80
2022-08-07T00:20:06.854Z,47.80
2022-08-07T00:20:40.098Z,48.00
2022-08-07T00:21:56.945Z,47.70
2022-08-07T00:22:04.019Z,47.70
2022-08-07T00:22:36.564Z,47.60
2022-08-07T00:23:08.415Z,47.70
2022-08-07T00:23:41.407Z,47.60
2022-08-07T00:24:13.209Z,47.70
2022-08-07T00:24:46.158Z,47.40
2022-08-07T00:25:18.062Z,47.60
2022-08-07T00:25:59.112Z,47.60
2022-08-07T00:26:58.883Z,47.60
2022-08-07T00:27:25.400Z,47.70
2022-08-07T00:28:07.566Z,47.60
2022-08-07T00:28:45.644Z,48.30
2022-08-07T00:29:19.152Z,47.60
2022-08-07T00:29:55.235Z,47.60
2022-08-07T00:30:28.578Z,47.80
2022-08-07T00:31:05.778Z,47.70
2022-08-07T00:31:41.497Z,47.80
2022-08-07T00:32:15.387Z,47.70
2022-08-07T00:32:49.147Z,47.80
2022-08-07T00:33:26.343Z,47.70
2022-08-07T00:34:00.371Z,47.80
2022-08-07T00:34:32.536Z,47.80
2022-08-07T00:35:07.726Z,47.70
2022-08-07T00:35:40.679Z,47.90
2022-08-07T00:36:12.509Z,47.80
2022-08-07T00:36:44.576Z,47.90
2022-08-07T00:37:17.528Z,48.90
2022-08-07T00:37:49.351Z,47.80
2022-08-07T00:38:31.447Z,47.90
2022-08-07T00:39:04.309Z,47.90
2022-08-07T00:39:36.245Z,48.00
2022-08-07T00:40:16.995Z,48.00
2022-08-07T00:41:10.009Z,48.00
2022-08-07T00:41:53.731Z,48.00
2022-08-07T00:42:34.317Z,48.00
2022-08-07T00:43:59.011Z,48.00
2022-08-07T00:44:06.013Z,48.10
2022-08-07T00:44:41.384Z,48.00
2022-08-07T00:45:16.373Z,48.00
2022-08-07T00:45:48.955Z,48.00
2022-08-07T00:46:22.755Z,48.00
2022-08-07T00:46:55.346Z,47.90
2022-08-07T00:48:08.964Z,47.10
2022-08-07T00:48:31.058Z,47.90
2022-08-07T00:49:04.142Z,47.90
2022-08-07T00:50:19.654Z,48.00
2022-08-07T00:50:50.847Z,48.10
2022-08-07T00:51:20.080Z,48.10
2022-08-07T00:51:58.271Z,48.00
2022-08-07T00:52:33.330Z,48.10
2022-08-07T00:53:09.305Z,48.10
2022-08-07T00:53:50.768Z,48.10
2022-08-07T00:54:27.239Z,47.90
2022-08-07T00:55:04.702Z,48.20
2022-08-07T00:56:02.753Z,47.80
2022-08-07T03:17:04.915Z,48.90
2022-08-07T03:21:19.986Z,48.90
2022-08-07T04:58:15.424Z,50.30
2022-08-07T04:58:16.215Z,50.40
2022-08-07T04:58:24.425Z,50.70
2022-08-07T04:58:49.621Z,51.20
2022-08-07T05:00:11.120Z,51.70
2022-08-07T05:00:46.463Z,51.60
2022-08-07T05:01:31.783Z,51.80
2022-08-07T05:02:16.640Z,52.40
2022-08-07T05:03:31.081Z,52.30
2022-08-07T05:04:22.304Z,51.90
2022-08-07T05:05:52.936Z,51.70
2022-08-07T05:06:43.236Z,52.00
2022-08-07T05:07:44.217Z,51.90
2022-08-07T05:08:59.783Z,52.00
2022-08-07T05:09:46.232Z,52.10
2022-08-07T05:10:26.602Z,51.90
2022-08-07T05:11:24.349Z,52.10
2022-08-07T05:12:05.031Z,51.80
2022-08-07T05:13:09.984Z,51.70
2022-08-07T05:14:54.135Z,51.90
2022-08-07T05:15:23.016Z,51.80
2022-08-07T05:16:04.603Z,52.00
2022-08-07T05:16:44.148Z,52.20
2022-08-07T05:17:52.481Z,52.00
2022-08-07T05:18:29.535Z,52.10
2022-08-07T05:19:11.681Z,52.10
2022-08-07T05:19:51.200Z,52.10
2022-08-07T05:20:32.475Z,52.30
2022-08-07T05:21:09.880Z,52.30
2022-08-07T05:22:00.817Z,52.30
2022-08-07T05:22:41.442Z,52.50
2022-08-07T05:23:19.413Z,52.40
2022-08-07T05:24:10.759Z,52.40
2022-08-07T05:24:46.369Z,52.50
2022-08-07T05:25:25.320Z,52.70
2022-08-07T05:26:18.841Z,53.20
2022-08-07T05:27:01.595Z,52.60
2022-08-07T05:28:16.971Z,52.90
2022-08-07T05:28:29.010Z,52.70
2022-08-07T05:29:04.686Z,52.70
2022-08-07T05:29:51.260Z,52.70
2022-08-07T05:30:30.121Z,52.90
2022-08-07T05:31:08.178Z,53.00
2022-08-07T05:31:51.153Z,52.90
2022-08-07T05:32:29.076Z,53.00
2022-08-07T05:33:03.814Z,53.00
2022-08-07T05:33:38.730Z,53.10
2022-08-07T05:34:15.834Z,53.00
2022-08-07T05:34:50.871Z,53.00
2022-08-07T05:35:33.572Z,53.10
2022-08-07T05:36:22.374Z,53.00
2022-08-07T05:36:56.591Z,53.10
2022-08-07T05:37:40.713Z,53.40
2022-08-07T05:39:00.494Z,53.30
2022-08-07T05:40:06.821Z,53.30
2022-08-07T05:40:06.941Z,53.30
2022-08-07T05:40:52.066Z,53.30
2022-08-07T05:41:26.693Z,53.00
2022-08-07T05:42:34.404Z,52.20
2022-08-07T05:43:13.118Z,53.40
2022-08-07T05:44:08.254Z,53.30
2022-08-07T05:44:52.774Z,53.00
2022-08-07T05:45:46.731Z,53.50
2022-08-07T05:46:23.699Z,53.30
2022-08-07T05:47:01.114Z,53.30
2022-08-07T05:47:38.434Z,53.20
2022-08-07T05:48:29.255Z,53.50
2022-08-07T05:49:11.899Z,53.50
2022-08-07T05:49:51.068Z,53.50
2022-08-07T05:50:26.268Z,53.40
2022-08-07T05:51:03.397Z,53.40
2022-08-07T05:51:39.973Z,53.40
2022-08-07T05:52:12.700Z,53.20
2022-08-07T05:52:45.700Z,53.30
2022-08-07T05:54:12.780Z,53.40
2022-08-07T05:54:30.142Z,53.40
2022-08-07T05:55:10.669Z,53.60
2022-08-07T05:56:03.495Z,53.50
2022-08-07T05:56:43.479Z,53.60
2022-08-07T05:57:16.874Z,53.50
2022-08-07T05:57:51.246Z,53.50
2022-08-07T05:58:36.235Z,53.60
2022-08-07T05:59:17.078Z,53.30
2022-08-07T05:59:55.968Z,53.50
2022-08-07T06:00:37.054Z,53.50
2022-08-07T06:01:13.401Z,53.50
2022-08-07T06:01:50.792Z,53.40
2022-08-07T06:02:29.105Z,53.40
2022-08-07T06:03:06.947Z,53.20
2022-08-07T06:03:56.456Z,53.00
2022-08-07T06:04:34.157Z,53.20
2022-08-07T06:05:15.709Z,53.20
2022-08-07T06:05:56.656Z,53.30
2022-08-07T06:06:32.513Z,52.20
2022-08-07T06:07:08.350Z,53.50
2022-08-07T06:08:14.775Z,53.20
2022-08-07T06:08:52.421Z,53.30
2022-08-07T06:10:04.106Z,53.50
2022-08-07T06:10:20.722Z,53.40
2022-08-07T06:10:55.022Z,53.30
2022-08-07T06:11:28.618Z,53.60
2022-08-07T06:12:01.214Z,53.70
2022-08-07T06:12:34.527Z,53.60
2022-08-07T06:13:06.891Z,53.70
2022-08-07T06:14:13.592Z,53.70
2022-08-07T06:14:38.066Z,53.60
2022-08-07T06:15:16.261Z,54.00
2022-08-07T06:15:54.373Z,53.70
2022-08-07T06:16:34.259Z,53.80
2022-08-07T06:17:10.153Z,53.60
2022-08-07T06:17:53.606Z,53.80
2022-08-07T06:18:32.134Z,53.50
2022-08-07T06:19:06.572Z,53.50
2022-08-07T06:19:48.031Z,53.70
2022-08-07T06:20:49.897Z,53.50
2022-08-07T06:22:14.426Z,53.70
2022-08-07T06:22:24.166Z,53.50
2022-08-07T06:23:46.048Z,53.60
2022-08-07T06:24:46.106Z,53.60
2022-08-07T06:25:06.219Z,53.70
2022-08-07T06:25:54.273Z,53.60
2022-08-07T06:26:27.924Z,53.90
2022-08-07T06:27:03.544Z,53.50
2022-08-07T06:27:44.010Z,53.40
2022-08-07T06:28:28.698Z,53.60
2022-08-07T06:29:04.109Z,53.40
2022-08-07T06:29:39.073Z,53.90
2022-08-07T06:30:24.151Z,53.60
2022-08-07T06:31:04.486Z,53.60
2022-08-07T06:31:46.985Z,53.50
2022-08-07T06:32:24.172Z,53.50
2022-08-07T06:33:02.022Z,53.50
2022-08-07T06:33:35.805Z,53.40
2022-08-07T06:34:07.757Z,53.80
2022-08-07T06:34:40.748Z,53.40
2022-08-07T06:35:17.940Z,53.60
2022-08-07T06:36:12.856Z,53.60
2022-08-07T06:36:46.850Z,53.70
2022-08-07T06:37:20.413Z,53.70
2022-08-07T06:37:53.238Z,53.50
2022-08-07T06:38:28.427Z,53.70
2022-08-07T06:40:13.149Z,53.60
2022-08-07T06:40:16.632Z,53.60
2022-08-07T06:40:51.175Z,53.80
2022-08-07T06:42:00.907Z,53.80
2022-08-07T06:42:49.488Z,53.70
2022-08-07T06:43:39.757Z,53.60
2022-08-07T06:44:20.162Z,53.80
2022-08-07T06:44:54.939Z,53.60
2022-08-07T06:45:29.948Z,54.00
2022-08-07T06:46:05.809Z,54.00
2022-08-07T06:46:43.924Z,53.80
2022-08-07T06:47:26.994Z,53.80
2022-08-07T06:48:01.548Z,53.90
2022-08-07T06:48:42.093Z,53.90
2022-08-07T06:49:19.222Z,53.70
2022-08-07T06:49:58.486Z,53.70
2022-08-07T06:50:39.236Z,53.90
2022-08-07T06:51:31.373Z,53.80
2022-08-07T06:52:11.361Z,53.80
2022-08-07T06:52:53.147Z,53.80
2022-08-07T06:55:27.243Z,53.70
2022-08-07T06:55:31.625Z,54.30
2022-08-07T06:55:53.908Z,54.50
2022-08-07T06:56:49.474Z,54.40
2022-08-07T06:57:39.424Z,54.40
2022-08-07T06:58:24.577Z,54.20
2022-08-07T07:00:12.382Z,54.20
2022-08-07T07:00:13.122Z,54.60
2022-08-07T07:00:52.993Z,54.30
2022-08-07T07:01:26.099Z,54.30
2022-08-07T07:02:15.576Z,54.70
2022-08-07T07:03:14.531Z,55.00
2022-08-07T07:03:57.203Z,54.80
2022-08-07T07:04:43.534Z,54.70
2022-08-07T07:06:05.554Z,54.60
2022-08-07T07:06:23.957Z,54.70
2022-08-07T07:07:01.896Z,54.80
2022-08-07T07:08:00.216Z,54.50
2022-08-07T07:08:28.286Z,54.40
2022-08-07T07:09:22.313Z,54.40
2022-08-07T07:09:55.319Z,54.60
2022-08-07T07:10:34.862Z,54.50
2022-08-07T07:11:13.275Z,54.50
2022-08-07T07:12:08.714Z,54.90
2022-08-07T07:12:53.524Z,55.00
2022-08-07T07:13:56.581Z,54.90
2022-08-07T07:14:36.166Z,55.00
2022-08-07T07:15:24.046Z,54.80
2022-08-07T07:16:05.156Z,54.50
2022-08-07T07:16:49.810Z,54.90
2022-08-07T07:17:38.925Z,54.60
2022-08-07T07:18:46.874Z,54.90
2022-08-07T07:19:57.795Z,55.40
2022-08-07T07:20:20.580Z,55.60
2022-08-07T07:21:19.756Z,55.50
2022-08-07T07:22:04.569Z,55.50
2022-08-07T07:24:10.106Z,56.20
2022-08-07T07:24:10.247Z,55.60
2022-08-07T07:24:30.479Z,55.40
2022-08-07T07:26:30.821Z,55.90
2022-08-07T07:26:32.405Z,56.10
2022-08-07T07:27:01.374Z,57.00
2022-08-07T07:27:58.475Z,57.40
2022-08-07T07:29:38.979Z,57.40
2022-08-07T07:30:09.768Z,58.50
2022-08-07T07:30:52.711Z,58.00
2022-08-07T07:31:50.972Z,57.40
2022-08-07T07:32:24.138Z,57.10
2022-08-07T07:32:59.579Z,57.00
2022-08-07T07:33:34.923Z,57.00
2022-08-07T07:34:12.998Z,57.00
2022-08-07T07:34:51.796Z,57.00
2022-08-07T07:35:25.243Z,56.90
2022-08-07T07:36:12.809Z,57.40
2022-08-07T07:36:48.041Z,56.80
2022-08-07T07:37:44.480Z,56.50
2022-08-07T07:38:25.322Z,56.30
2022-08-07T07:38:59.267Z,56.30
2022-08-07T07:39:45.399Z,56.30
2022-08-07T07:40:26.234Z,56.30
2022-08-07T07:41:02.943Z,56.10
2022-08-07T07:42:01.835Z,56.70
2022-08-07T07:42:33.481Z,56.40
2022-08-07T07:43:15.099Z,56.70
2022-08-07T07:44:18.051Z,56.20
2022-08-07T07:44:49.439Z,56.50
2022-08-07T07:46:36.510Z,56.80
2022-08-07T07:46:40.314Z,56.50
2022-08-07T07:47:22.959Z,56.90
2022-08-07T07:47:58.149Z,56.20
2022-08-07T07:48:35.127Z,56.60
2022-08-07T07:50:34.582Z,57.30
2022-08-07T07:50:36.037Z,57.20
2022-08-07T07:50:59.345Z,57.00
2022-08-07T07:51:57.478Z,57.30
2022-08-07T07:52:30.740Z,57.50
2022-08-07T07:53:05.049Z,57.70
2022-08-07T07:53:51.929Z,57.60
2022-08-07T07:54:27.687Z,58.20
2022-08-07T07:55:00.898Z,58.60
2022-08-07T07:55:37.198Z,58.80
2022-08-07T07:56:12.522Z,59.30
2022-08-07T07:56:46.463Z,59.20
2022-08-07T07:57:43.527Z,59.20
2022-08-07T07:58:15.694Z,59.80
2022-08-07T07:58:53.151Z,60.00
2022-08-07T07:59:52.881Z,59.70
2022-08-07T08:00:31.317Z,59.60
2022-08-07T08:02:03.022Z,60.60
2022-08-07T08:02:10.568Z,59.60
2022-08-07T08:03:01.236Z,60.90
2022-08-07T08:04:06.099Z,60.60
2022-08-07T08:04:33.984Z,60.20
2022-08-07T08:05:11.374Z,59.60
2022-08-07T08:05:55.000Z,59.30
2022-08-07T08:06:28.694Z,59.40
2022-08-07T08:07:07.639Z,59.50
2022-08-07T08:07:42.554Z,59.40
2022-08-07T08:08:34.940Z,59.30
2022-08-07T08:09:10.179Z,59.20
2022-08-07T08:09:51.822Z,59.40
2022-08-07T08:10:38.797Z,59.80
2022-08-07T08:11:16.297Z,60.00
2022-08-07T08:12:02.715Z,59.20
2022-08-07T08:12:59.246Z,59.20
2022-08-07T08:13:36.645Z,59.40
2022-08-07T08:14:26.301Z,60.00
2022-08-07T08:14:58.368Z,59.20
2022-08-07T08:15:57.854Z,59.50
2022-08-07T08:16:38.653Z,59.70
2022-08-07T08:17:55.314Z,59.70
2022-08-07T08:18:18.024Z,59.90
2022-08-07T08:18:55.609Z,60.10
2022-08-07T08:20:17.329Z,59.80
2022-08-07T08:20:31.933Z,60.00
2022-08-07T08:21:07.601Z,60.20
2022-08-07T08:22:03.964Z,61.50
2022-08-07T08:22:59.791Z,60.50
2022-08-07T08:23:53.570Z,60.20
2022-08-07T08:24:56.996Z,59.90
2022-08-07T08:26:03.407Z,60.30
2022-08-07T08:26:58.153Z,61.00
2022-08-07T08:27:35.863Z,60.90
2022-08-07T08:28:11.434Z,60.80
2022-08-07T08:28:52.129Z,60.70
2022-08-07T08:29:24.802Z,61.30
2022-08-07T08:30:14.392Z,61.20
2022-08-07T08:30:55.877Z,61.50
2022-08-07T08:32:16.802Z,62.80
2022-08-07T08:32:48.819Z,62.50
2022-08-07T08:33:25.168Z,61.90
2022-08-07T08:34:04.049Z,61.90
2022-08-07T08:34:40.845Z,62.20
2022-08-07T08:35:25.518Z,63.50
2022-08-07T08:36:02.590Z,64.10
2022-08-07T08:36:37.248Z,62.80
2022-08-07T08:38:01.186Z,63.60
2022-08-07T08:38:07.073Z,63.30
2022-08-07T08:38:44.691Z,63.00
2022-08-07T08:39:17.018Z,62.40
2022-08-07T08:39:55.304Z,62.30
2022-08-07T08:40:40.349Z,62.20
2022-08-07T08:41:31.536Z,62.30
2022-08-07T08:42:45.106Z,62.20
2022-08-07T08:43:58.612Z,62.40
2022-08-07T08:44:45.828Z,62.70
2022-08-07T08:45:59.399Z,62.60
2022-08-07T08:46:38.548Z,63.50
2022-08-07T08:47:25.830Z,63.80
2022-08-07T08:48:28.392Z,63.20
2022-08-07T08:49:33.497Z,64.10
2022-08-07T08:50:28.604Z,64.80
2022-08-07T08:52:00.699Z,65.00
2022-08-07T08:52:32.175Z,63.90
2022-08-07T08:53:45.862Z,63.20
2022-08-07T08:54:24.138Z,63.60
2022-08-07T08:55:08.151Z,63.30
2022-08-07T08:55:54.236Z,63.80
2022-08-07T08:56:52.214Z,63.40
2022-08-07T08:57:39.985Z,63.30
2022-08-07T08:58:54.479Z,63.90
2022-08-07T08:59:42.249Z,63.60
2022-08-07T09:00:21.366Z,64.20
2022-08-07T09:01:22.449Z,64.10
2022-08-07T09:02:10.118Z,64.10
2022-08-07T09:02:58.652Z,64.60
2022-08-07T09:03:52.933Z,64.50
2022-08-07T09:04:36.573Z,64.20
2022-08-07T09:05:36.745Z,64.20
2022-08-07T09:06:36.516Z,64.10
2022-08-07T09:07:11.349Z,64.30
2022-08-07T09:08:11.271Z,64.40
2022-08-07T09:08:57.954Z,64.10
2022-08-07T09:09:56.881Z,64.80
2022-08-07T09:10:45.098Z,65.20
2022-08-07T09:11:24.730Z,64.30
2022-08-07T09:12:30.820Z,64.40
2022-08-07T09:13:37.132Z,64.30
2022-08-07T09:14:15.324Z,63.80
2022-08-07T09:16:22.696Z,63.20
2022-08-07T09:16:23.871Z,63.50
2022-08-07T09:17:59.725Z,64.50
2022-08-07T09:18:58.601Z,64.80
2022-08-07T09:19:57.546Z,63.00
2022-08-07T09:20:54.054Z,62.10
2022-08-07T09:22:09.965Z,63.30
2022-08-07T09:24:54.144Z,64.50
2022-08-07T09:24:55.098Z,64.10
2022-08-07T09:26:01.029Z,63.00
2022-08-07T09:27:04.648Z,62.10
2022-08-07T09:28:01.253Z,64.20
2022-08-07T09:30:03.416Z,63.20
2022-08-07T09:30:05.360Z,64.20
2022-08-07T09:30:59.865Z,64.70
2022-08-07T09:31:56.107Z,65.30
2022-08-07T09:32:35.997Z,64.60
2022-08-07T09:33:41.271Z,64.10
2022-08-07T09:34:21.543Z,62.30
2022-08-07T09:36:04.048Z,62.00
2022-08-07T09:36:22.574Z,62.60
2022-08-07T09:37:07.322Z,61.80
2022-08-07T09:37:53.886Z,63.00
2022-08-07T09:38:38.779Z,63.90
2022-08-07T09:39:55.594Z,63.00
2022-08-07T09:40:26.399Z,62.60
2022-08-07T09:41:09.009Z,63.90
2022-08-07T09:42:05.825Z,64.40
2022-08-07T09:43:08.265Z,64.40
2022-08-07T09:44:30.106Z,63.80
2022-08-07T09:47:50.041Z,62.20
2022-08-07T09:47:51.886Z,64.80
2022-08-07T09:48:01.429Z,64.80
2022-08-07T09:50:00.451Z,65.70
2022-08-07T09:50:21.220Z,64.40
2022-08-07T09:51:05.368Z,64.30
2022-08-07T09:52:34.369Z,64.50
2022-08-07T09:53:09.904Z,65.80
2022-08-07T09:53:56.157Z,64.00
2022-08-07T09:54:45.988Z,63.70
2022-08-07T09:56:02.862Z,65.10
2022-08-07T09:56:50.494Z,65.30
2022-08-07T09:57:46.641Z,65.40
2022-08-07T09:58:38.708Z,64.80
2022-08-07T10:00:00.559Z,65.90
2022-08-07T10:00:59.246Z,65.30
2022-08-07T10:02:01.485Z,63.60
2022-08-07T10:03:08.287Z,65.10
2022-08-07T10:04:28.157Z,66.00
2022-08-07T10:05:58.032Z,65.30
2022-08-07T10:06:24.449Z,65.80
2022-08-07T10:07:02.415Z,65.60
2022-08-07T10:07:55.146Z,66.00
2022-08-07T10:09:15.230Z,66.30
2022-08-07T10:10:13.815Z,65.10
2022-08-07T10:12:00.650Z,63.90
2022-08-07T10:12:37.952Z,63.00
2022-08-07T10:13:54.919Z,62.20
2022-08-07T10:14:31.299Z,62.50
2022-08-07T10:15:18.605Z,62.30
2022-08-07T10:16:05.845Z,62.60
2022-08-07T10:17:14.472Z,62.80
2022-08-07T10:18:01.901Z,63.90
2022-08-07T10:18:47.330Z,63.80
2022-08-07T10:19:46.550Z,62.20
2022-08-07T10:20:51.165Z,61.70
2022-08-07T10:22:14.558Z,62.70
2022-08-07T10:22:52.831Z,61.60
2022-08-07T10:24:05.881Z,61.30
2022-08-07T10:25:00.135Z,61.40
2022-08-07T10:26:05.883Z,60.70
2022-08-07T10:27:15.760Z,61.90
2022-08-07T10:28:18.983Z,60.90
2022-08-07T10:29:21.543Z,61.30
2022-08-07T10:30:12.262Z,62.60
2022-08-07T10:31:31.462Z,60.80
2022-08-07T10:32:50.983Z,60.60
2022-08-07T10:34:06.351Z,60.30
2022-08-07T10:34:32.297Z,60.40
2022-08-07T10:35:56.009Z,61.00
2022-08-07T10:36:56.351Z,60.30
2022-08-07T10:38:09.537Z,61.20
2022-08-07T10:39:25.640Z,61.10
2022-08-07T10:40:30.535Z,59.80
2022-08-07T10:41:54.751Z,60.10
2022-08-07T10:42:41.745Z,59.70
2022-08-07T10:43:55.308Z,59.50
2022-08-07T10:44:56.575Z,59.40
2022-08-07T10:45:44.140Z,59.70
2022-08-07T10:46:21.882Z,59.70
2022-08-07T10:47:11.732Z,59.50
2022-08-07T10:52:45.158Z,57.60
2022-08-07T10:53:28.053Z,58.50
2022-08-07T10:54:41.434Z,58.40
2022-08-07T10:55:53.458Z,59.00
2022-08-07T10:56:53.589Z,58.20
2022-08-07T10:57:34.508Z,58.30
2022-08-07T10:58:36.565Z,58.80
2022-08-07T10:59:30.434Z,58.30
2022-08-07T11:00:36.400Z,57.80
2022-08-07T11:01:11.497Z,58.00
2022-08-07T11:02:27.310Z,57.80
2022-08-07T11:03:51.318Z,57.80
2022-08-07T11:05:08.546Z,58.10
2022-08-07T11:05:58.508Z,57.90
2022-08-07T11:06:59.998Z,57.80
2022-08-07T11:07:58.305Z,57.70
2022-08-07T11:08:38.971Z,57.60
2022-08-07T11:10:07.096Z,57.60
2022-08-07T11:10:38.860Z,57.50
2022-08-07T11:11:24.489Z,57.60
2022-08-07T11:12:19.165Z,57.10
2022-08-07T11:14:44.103Z,57.20
2022-08-07T11:14:46.452Z,57.20
2022-08-07T11:15:31.647Z,57.10
2022-08-07T11:16:21.829Z,57.10
2022-08-07T11:17:43.223Z,57.00
2022-08-07T11:18:33.926Z,57.00
2022-08-07T11:19:13.981Z,57.10
2022-08-07T11:20:04.530Z,57.00
2022-08-07T11:21:14.326Z,57.00
2022-08-07T11:22:07.111Z,57.10
2022-08-07T11:22:59.469Z,57.00
2022-08-07T11:23:53.553Z,56.80
2022-08-07T11:24:45.544Z,56.90
2022-08-07T11:25:26.742Z,56.80
2022-08-07T11:26:09.520Z,56.50
2022-08-07T11:26:55.967Z,56.60
2022-08-07T11:28:01.625Z,57.10
2022-08-07T11:28:42.799Z,56.50
2022-08-07T11:29:42.069Z,56.00
2022-08-07T11:30:19.411Z,55.80
2022-08-07T11:31:29.013Z,56.10
2022-08-07T11:32:25.903Z,56.20
2022-08-07T11:33:17.526Z,56.30
2022-08-07T11:36:49.822Z,55.30
2022-08-07T11:37:24.269Z,55.80
2022-08-07T11:38:22.818Z,56.00
2022-08-07T11:39:10.072Z,56.10
2022-08-07T11:40:03.864Z,56.50
2022-08-07T11:41:10.643Z,56.40
2022-08-07T11:42:19.592Z,56.30
2022-08-07T11:42:51.331Z,56.30
2022-08-07T11:43:54.655Z,56.20
2022-08-07T11:44:52.556Z,56.20
2022-08-07T11:45:49.882Z,55.90
2022-08-07T11:46:25.343Z,55.60
2022-08-07T11:47:56.043Z,55.30
2022-08-07T11:48:40.722Z,55.30
2022-08-07T11:50:25.345Z,55.10
2022-08-07T11:50:57.807Z,55.10
2022-08-07T11:51:48.679Z,55.00
2022-08-07T11:52:45.510Z,54.50
2022-08-07T11:53:43.199Z,54.80
2022-08-07T11:54:57.150Z,54.70
2022-08-07T11:56:27.327Z,54.60
2022-08-07T11:57:12.803Z,55.00
2022-08-07T11:58:16.324Z,54.60
2022-08-07T11:59:03.498Z,54.80
2022-08-07T12:00:11.877Z,54.80
2022-08-07T12:01:20.172Z,54.60
2022-08-07T12:02:20.907Z,54.30
2022-08-07T12:03:41.456Z,54.20
2022-08-07T12:04:40.826Z,54.00
2022-08-07T12:05:28.570Z,53.90
2022-08-07T12:06:39.808Z,53.60
2022-08-07T12:07:27.458Z,53.40
2022-08-07T12:08:25.725Z,53.70
2022-08-07T12:09:37.888Z,53.70
2022-08-07T12:10:28.783Z,53.20
2022-08-07T12:11:21.799Z,53.30
2022-08-07T12:12:09.324Z,53.30
2022-08-07T12:12:57.014Z,53.30
2022-08-07T12:13:48.762Z,53.30
2022-08-07T12:14:27.598Z,53.70
2022-08-07T12:15:35.420Z,53.60
2022-08-07T12:16:29.962Z,53.40
2022-08-07T12:17:19.564Z,53.30
2022-08-07T12:18:08.245Z,53.40
2022-08-07T12:19:07.698Z,53.60
2022-08-07T12:20:06.356Z,53.70
2022-08-07T12:21:16.154Z,53.90
2022-08-07T12:22:38.940Z,53.80
2022-08-07T12:23:14.417Z,53.70
2022-08-07T12:24:05.737Z,53.50
2022-08-07T12:26:00.920Z,53.10
2022-08-07T12:26:44.839Z,52.60
2022-08-07T12:27:27.839Z,52.10
2022-08-07T12:28:30.885Z,52.60
2022-08-07T12:29:11.874Z,52.40
2022-08-07T12:30:03.018Z,52.80
2022-08-07T12:30:40.772Z,52.30
2022-08-07T12:32:01.986Z,52.10
2022-08-07T12:32:53.470Z,52.10
2022-08-07T12:33:55.955Z,52.20
2022-08-07T12:34:26.005Z,52.10
2022-08-07T12:35:02.969Z,51.10
2022-08-07T12:35:41.194Z,52.20
2022-08-07T12:36:33.007Z,52.00
2022-08-07T12:37:23.150Z,52.10
2022-08-07T12:38:08.663Z,52.60
2022-08-07T12:38:47.457Z,52.80
2022-08-07T12:39:44.422Z,52.20
2022-08-07T12:41:20.751Z,52.00
2022-08-07T12:41:54.866Z,51.60
2022-08-07T12:42:32.003Z,51.10
2022-08-07T12:43:09.578Z,50.70
2022-08-07T12:44:03.554Z,51.20
2022-08-07T12:44:40.634Z,51.00
2022-08-07T12:45:22.167Z,51.20
2022-08-07T12:46:15.702Z,51.20
2022-08-07T12:47:08.076Z,51.80
2022-08-07T12:47:53.735Z,51.30
2022-08-07T12:48:52.540Z,50.90
2022-08-07T12:49:39.711Z,51.30
2022-08-07T12:50:40.054Z,51.40
2022-08-07T12:51:46.668Z,52.00
2022-08-07T12:52:36.564Z,51.90
2022-08-07T12:53:27.579Z,51.10
2022-08-07T12:54:36.987Z,50.90
2022-08-07T12:55:09.419Z,51.40
2022-08-07T12:56:02.796Z,50.80
2022-08-07T12:56:41.325Z,51.60
2022-08-07T12:57:19.451Z,51.90
2022-08-07T12:58:01.327Z,51.60
2022-08-07T12:58:39.640Z,51.60
2022-08-07T12:59:21.519Z,50.80
2022-08-07T12:59:55.957Z,50.50
2022-08-07T13:00:49.679Z,50.90
2022-08-07T13:01:34.186Z,50.70
2022-08-07T13:02:18.714Z,50.20
2022-08-07T13:03:08.146Z,48.60
2022-08-07T13:04:06.640Z,49.00
2022-08-07T13:06:02.757Z,49.50
2022-08-07T13:07:01.253Z,49.60
2022-08-07T13:08:12.913Z,49.80
2022-08-07T13:09:12.615Z,49.70
2022-08-07T13:10:39.934Z,49.90
2022-08-07T13:12:02.455Z,50.20
2022-08-07T13:12:56.369Z,50.60
2022-08-07T13:13:57.491Z,50.50
2022-08-07T13:15:23.804Z,50.70
2022-08-07T13:16:01.225Z,50.40
2022-08-07T13:16:51.426Z,49.80
2022-08-07T13:18:06.625Z,49.70
2022-08-07T13:18:57.736Z,49.30
2022-08-07T13:19:59.530Z,48.90
2022-08-07T13:20:44.584Z,49.10
2022-08-07T13:21:57.542Z,49.20
2022-08-07T13:22:40.598Z,49.50
2022-08-07T13:24:00.916Z,49.50
2022-08-07T13:25:24.175Z,49.70
2022-08-07T13:26:26.618Z,49.10
2022-08-07T13:27:13.722Z,48.40
2022-08-07T13:28:12.775Z,48.00
2022-08-07T13:28:58.458Z,47.90
2022-08-07T13:29:42.464Z,47.90
2022-08-07T13:30:41.214Z,48.30
2022-08-07T13:31:20.978Z,48.80
2022-08-07T13:32:23.565Z,49.50
2022-08-07T13:34:32.661Z,48.80
2022-08-07T13:34:38.089Z,48.90
2022-08-07T13:35:23.961Z,50.00
2022-08-07T13:36:30.275Z,49.50
2022-08-07T13:37:21.859Z,49.50
2022-08-07T13:38:16.417Z,49.60
2022-08-07T13:39:02.477Z,49.30
2022-08-07T13:40:33.741Z,49.30
2022-08-07T13:41:06.104Z,49.50
2022-08-07T13:41:49.306Z,49.70
2022-08-07T13:42:25.481Z,50.20
2022-08-07T13:43:11.937Z,50.20
2022-08-07T13:43:52.510Z,50.00
2022-08-07T13:44:34.238Z,50.40
2022-08-07T13:46:06.480Z,50.40
2022-08-07T13:46:10.832Z,50.70
2022-08-07T13:46:59.520Z,49.60
2022-08-07T13:48:06.515Z,50.60
2022-08-07T13:48:34.519Z,50.40
2022-08-07T13:50:32.910Z,49.80
2022-08-07T13:50:34.933Z,49.70
2022-08-07T13:51:01.259Z,49.80
2022-08-07T13:52:04.896Z,49.80
2022-08-07T13:52:38.136Z,49.30
2022-08-07T13:53:23.760Z,49.20
2022-08-07T13:54:05.052Z,49.00
2022-08-07T13:54:41.072Z,48.70
2022-08-07T13:55:26.623Z,49.00
2022-08-07T13:55:59.756Z,48.70
2022-08-07T13:56:41.331Z,48.50
2022-08-07T13:57:37.644Z,48.50
2022-08-07T13:58:32.065Z,48.60
2022-08-07T13:59:12.147Z,48.40
2022-08-07T13:59:54.987Z,48.40
2022-08-07T14:00:50.361Z,47.80
2022-08-07T14:01:33.392Z,48.30
2022-08-07T14:02:33.418Z,48.60
2022-08-07T14:03:13.921Z,48.50
2022-08-07T14:04:17.015Z,49.20
2022-08-07T14:04:58.973Z,49.60
2022-08-07T14:05:37.983Z,49.40
2022-08-07T14:06:13.370Z,49.60
2022-08-07T14:06:50.311Z,50.10
2022-08-07T14:07:27.742Z,49.40
2022-08-07T14:08:02.736Z,49.20
2022-08-07T14:08:42.993Z,48.80
2022-08-07T14:10:12.593Z,47.50
2022-08-07T14:10:27.997Z,47.60
2022-08-07T14:11:15.434Z,47.70
2022-08-07T14:12:01.185Z,47.60
2022-08-07T14:13:02.757Z,47.50
2022-08-07T14:13:38.443Z,47.20
2022-08-07T14:14:19.081Z,47.40
2022-08-07T14:14:58.874Z,47.30
2022-08-07T14:15:41.099Z,47.30
2022-08-07T14:16:16.058Z,47.50
2022-08-07T14:16:49.854Z,47.40
2022-08-07T14:18:12.833Z,47.40
2022-08-07T14:18:28.551Z,47.30
2022-08-07T14:19:04.959Z,47.30
2022-08-07T14:20:43.566Z,47.30
2022-08-07T14:20:48.868Z,47.70
2022-08-07T14:22:00.967Z,48.10
2022-08-07T14:22:34.202Z,48.00
2022-08-07T14:23:18.033Z,48.10
2022-08-07T14:24:36.146Z,48.00
2022-08-07T14:25:15.590Z,47.30
2022-08-07T14:26:00.431Z,47.80
2022-08-07T14:26:39.303Z,46.70
2022-08-07T14:28:09.681Z,46.40
2022-08-07T14:28:20.956Z,46.40
2022-08-07T14:30:04.984Z,45.70
2022-08-07T14:30:10.464Z,45.90
2022-08-07T14:30:52.263Z,46.30
2022-08-07T14:31:26.032Z,47.30
2022-08-07T14:32:17.584Z,47.30
2022-08-07T14:32:56.830Z,47.00
2022-08-07T14:33:44.946Z,46.40
2022-08-07T14:34:21.976Z,46.90
2022-08-07T14:35:04.085Z,46.50
2022-08-07T14:35:45.089Z,46.10